Louisville International Standiford Field
KSDF : now visible

Aeroporto :











RITROVATECI SU...

 
LOGIN :

Iscrizione | Disclaimer

   EN    FR    IT 

 









Sommario :    VFR   VFR Marginale   IFR   IFR Intensivo   IFR Molto Intensivo
Visibilità : 
Base nubi : 
>= 8 km
>= 3000ft
5 / 8 km
1000 / 3000 ft
1500m / 5 km
500 / 1000 ft
800 / 1500m
200 / 500 ft
< 800m
< 200 ft
Simboli :   Temporali  Nebbia  Neve Forte  Precipitazioni Forti  Vento > 20 kt






- Altitudine del aeroporto : 501 ft
- Codice IATA : SDF


KSDF - Louisville International Standiford Field

ULTIMO METAR :
  • 200956Z 01007KT 10SM OVC140 02/M05 A3047 RMK AO2 SLP321 T00171050

METARs OBSOLETI :
  • 200856Z 01005KT 10SM OVC140 02/M05 A3047 RMK AO2 SLP321 T00171050 53001
  • 200756Z 01008KT 10SM OVC140 02/M04 A3046 RMK AO2 SLP319 T00171044

TAF KSDF
Valido dal 20 a 06 ore il 21 a 12 ore UTC


200522Z 2006/2112 02008KT P6SM SCT110 OVC200
FM201100 01012KT P6SM OVC100
FM210100 36012KT P6SM SKC



MetMap, La meteo Aeronautica in un colpo d'occhio ! - Copyright ORBIFLY Dicembre 2007 - Disclaimer

ORBIFLY MET'MAP TEAM :

Programmazione e sviluppo : Alexandra Zaïnal
Concezione : Baudouin d'Aumeries
Aiuto per la programmazione : Marc-Olivier Méhu
Supporto tecnico e logistico : Manuel Goepfert
Aiuto per la traduzione : Arnaldo La Scala

Contatto : metmap@orbifly.com




FONTI E CREDITI :

   NOAA       Earth
Advisory